createdAt,value
2017-11-21T00:01:46.600Z,98838.67
2017-11-21T00:07:50.106Z,98824.73
2017-11-21T00:13:54.383Z,98815.98
2017-11-21T00:19:57.952Z,98811.98
2017-11-21T00:26:01.476Z,98809.67
2017-11-21T00:32:05.006Z,98825.42
2017-11-21T00:38:08.540Z,98826.08
2017-11-21T00:44:12.048Z,98826.08
2017-11-21T00:50:15.541Z,98819.13
2017-11-21T00:56:19.049Z,98810.61
2017-11-21T01:02:23.320Z,98812.53
2017-11-21T01:08:26.824Z,98811.28
2017-11-21T01:14:30.297Z,98793.88
2017-11-21T01:20:33.824Z,98788.70
2017-11-21T01:26:38.080Z,98786.87
2017-11-21T01:32:41.588Z,98790.16
2017-11-21T01:38:45.099Z,98790.70
2017-11-21T01:44:49.372Z,98784.77
2017-11-21T01:50:52.863Z,98783.63
2017-11-21T01:56:56.362Z,98780.91
2017-11-21T02:03:05.815Z,98782.37
2017-11-21T02:09:10.078Z,98766.33
2017-11-21T02:15:13.596Z,98776.98
2017-11-21T02:21:17.168Z,98774.39
2017-11-21T02:27:20.664Z,98773.27
2017-11-21T02:33:24.175Z,98783.39
2017-11-21T02:39:27.711Z,98777.31
2017-11-21T02:45:31.233Z,98780.87
2017-11-21T02:51:34.732Z,98789.92
2017-11-21T03:04:12.958Z,98774.61
2017-11-21T03:10:16.480Z,98769.81
2017-11-21T03:16:20.001Z,98759.69
2017-11-21T03:22:41.277Z,98758.98
2017-11-21T03:28:44.776Z,98760.67
2017-11-21T03:34:48.266Z,98770.02
2017-11-21T03:40:52.580Z,98777.67
2017-11-21T03:46:56.854Z,98772.53
2017-11-21T03:53:00.361Z,98779.49
2017-11-21T03:59:03.873Z,98788.41
2017-11-21T04:05:08.155Z,98790.72
2017-11-21T04:11:11.640Z,98784.66
2017-11-21T04:17:15.243Z,98790.17
2017-11-21T04:23:18.733Z,98793.41
2017-11-21T04:29:22.241Z,98791.91
2017-11-21T04:35:25.734Z,98793.12
2017-11-21T04:41:30.005Z,98791.02
2017-11-21T04:47:34.308Z,98796.93
2017-11-21T04:53:37.813Z,98790.75
2017-11-21T04:59:41.316Z,98784.33
2017-11-21T05:05:44.798Z,98775.88
2017-11-21T05:11:48.356Z,98780.42
2017-11-21T05:17:51.914Z,98779.84
2017-11-21T05:23:55.422Z,98785.45
2017-11-21T05:29:59.015Z,98789.37
2017-11-21T05:36:02.522Z,98797.14
2017-11-21T05:42:06.027Z,98798.30
2017-11-21T05:48:10.309Z,98796.95
2017-11-21T05:54:13.877Z,98804.28
2017-11-21T06:00:17.376Z,98807.19
2017-11-21T06:06:20.922Z,98795.50
2017-11-21T06:12:24.429Z,98800.95
2017-11-21T06:18:27.940Z,98799.33
2017-11-21T06:24:31.458Z,98803.05
2017-11-21T06:30:35.732Z,98822.80
2017-11-21T06:36:39.236Z,98809.21
2017-11-21T06:42:42.766Z,98820.92
2017-11-21T06:48:46.249Z,98828.84
2017-11-21T06:54:49.800Z,98838.19
2017-11-21T07:00:53.304Z,98842.63
2017-11-21T07:06:57.591Z,98841.09
2017-11-21T07:13:01.148Z,98840.50
2017-11-21T07:19:04.640Z,98844.02
2017-11-21T07:25:08.143Z,98845.05
2017-11-21T07:31:11.649Z,98855.38
2017-11-21T07:37:15.935Z,98853.45
2017-11-21T07:43:19.434Z,98862.31
2017-11-21T07:49:23.700Z,98858.64
2017-11-21T07:55:27.213Z,98853.64
2017-11-21T08:01:30.730Z,98860.04
2017-11-21T08:07:34.992Z,98873.81
2017-11-21T08:13:38.474Z,98863.63
2017-11-21T08:19:41.971Z,98875.27
2017-11-21T08:25:45.525Z,98872.91
2017-11-21T08:31:49.018Z,98878.80
2017-11-21T08:37:52.508Z,98897.05
2017-11-21T08:43:56.022Z,98881.87
2017-11-21T08:49:59.530Z,98881.08
2017-11-21T08:56:03.054Z,98890.86
2017-11-21T09:02:06.554Z,98886.53
2017-11-21T09:08:10.044Z,98889.94
2017-11-21T09:14:13.549Z,98892.53
2017-11-21T09:20:17.821Z,98893.95
2017-11-21T09:26:21.329Z,98898.20
2017-11-21T09:32:24.804Z,98897.59
2017-11-21T09:38:28.424Z,98911.48
2017-11-21T09:44:32.036Z,98909.63
2017-11-21T09:50:35.525Z,98907.45
2017-11-21T09:56:39.020Z,98910.23
2017-11-21T10:02:42.526Z,98907.88
2017-11-21T10:08:46.034Z,98907.25
2017-11-21T10:14:50.294Z,98905.30
2017-11-21T10:20:53.809Z,98905.28
2017-11-21T10:26:57.295Z,98894.89
2017-11-21T10:33:01.154Z,98896.85
2017-11-21T10:39:04.990Z,98899.34
2017-11-21T10:45:09.483Z,98890.06
2017-11-21T10:51:14.678Z,98885.42
2017-11-21T10:57:18.663Z,98884.09
2017-11-21T11:03:37.447Z,98888.02
2017-11-21T11:09:41.226Z,98885.01
2017-11-21T11:15:45.563Z,98885.12
2017-11-21T11:21:50.930Z,98876.48
2017-11-21T11:27:54.940Z,98875.15
2017-11-21T11:34:01.323Z,98866.28
2017-11-21T11:40:06.736Z,98864.22
2017-11-21T11:46:11.438Z,98861.21
2017-11-21T11:52:15.540Z,98852.77
2017-11-21T11:58:19.643Z,98861.08
2017-11-21T12:04:23.415Z,98854.81
2017-11-21T12:10:28.197Z,98846.88
2017-11-21T12:16:32.430Z,98845.84
2017-11-21T12:22:36.115Z,98846.06
2017-11-21T12:28:41.088Z,98842.75
2017-11-21T12:34:46.640Z,98841.50
2017-11-21T12:40:51.898Z,98835.61
2017-11-21T12:46:56.627Z,98841.91
2017-11-21T12:53:02.025Z,98839.75
2017-11-21T12:59:06.691Z,98835.20
2017-11-21T13:05:11.059Z,98831.29
2017-11-21T13:11:15.610Z,98830.47
2017-11-21T13:17:20.665Z,98827.27
2017-11-21T13:23:26.053Z,98817.18
2017-11-21T13:29:31.139Z,98817.07
2017-11-21T13:48:35.054Z,98818.05
2017-11-21T13:54:40.697Z,98816.08
2017-11-21T14:00:45.191Z,98809.48
2017-11-21T14:06:49.340Z,98807.05
2017-11-21T14:12:53.590Z,98808.28
2017-11-21T14:18:57.375Z,98803.22
2017-11-21T14:25:02.647Z,98799.02
2017-11-21T14:31:08.298Z,98802.52
2017-11-21T14:37:13.051Z,98793.77
2017-11-21T14:43:16.802Z,98791.19
2017-11-21T14:49:21.260Z,98784.27
2017-11-21T14:55:27.014Z,98785.02
2017-11-21T15:01:32.841Z,98787.39
2017-11-21T15:07:37.611Z,98779.33
2017-11-21T15:13:41.287Z,98777.58
2017-11-21T15:19:45.789Z,98769.77
2017-11-21T15:25:52.412Z,98768.84
2017-11-21T15:31:57.016Z,98765.72
2017-11-21T15:38:03.227Z,98770.56
2017-11-21T15:44:07.932Z,98769.74
2017-11-21T15:50:13.815Z,98762.12
2017-11-21T15:56:21.459Z,98759.77
2017-11-21T16:02:29.218Z,98753.05
2017-11-21T16:08:33.748Z,98756.88
2017-11-21T16:14:37.982Z,98751.52
2017-11-21T16:20:42.331Z,98750.47
2017-11-21T16:26:47.991Z,98749.84
2017-11-21T16:32:51.749Z,98753.02
2017-11-21T16:38:55.848Z,98746.02
2017-11-21T16:45:01.538Z,98752.41
2017-11-21T16:51:08.097Z,98760.13
2017-11-21T16:57:11.838Z,98766.92
2017-11-21T17:03:15.471Z,98766.37
2017-11-21T17:09:19.521Z,98769.50
2017-11-21T17:15:23.956Z,98769.28
2017-11-21T17:21:29.363Z,98766.19
2017-11-21T17:27:33.335Z,98781.11
2017-11-21T17:33:37.869Z,98787.70
2017-11-21T17:39:42.989Z,98787.63
2017-11-21T17:45:47.378Z,98789.67
2017-11-21T17:51:51.776Z,98792.54
2017-11-21T17:57:55.398Z,98790.49
2017-11-21T18:04:02.148Z,98787.10
2017-11-21T18:10:06.466Z,98784.02
2017-11-21T18:16:11.507Z,98787.63
2017-11-21T18:22:15.145Z,98767.93
2017-11-21T18:28:19.756Z,98769.68
2017-11-21T18:34:23.669Z,98776.16
2017-11-21T18:40:28.292Z,98784.20
2017-11-21T18:46:32.234Z,98790.56
2017-11-21T18:52:36.902Z,98782.63
2017-11-21T18:58:40.919Z,98776.45
2017-11-21T19:04:44.748Z,98767.59
2017-11-21T19:10:48.455Z,98769.45
2017-11-21T19:16:53.629Z,98768.33
2017-11-21T19:22:58.248Z,98787.91
2017-11-21T19:29:02.651Z,98797.59
2017-11-21T19:35:06.708Z,98793.98
2017-11-21T19:41:12.894Z,98795.22
2017-11-21T19:47:16.623Z,98789.86
2017-11-21T19:53:20.705Z,98794.81
2017-11-21T19:59:24.352Z,98788.74
2017-11-21T20:05:28.532Z,98795.22
2017-11-21T20:11:34.211Z,98782.27
2017-11-21T20:33:53.458Z,98772.09
2017-11-21T20:39:58.475Z,98782.89
2017-11-21T20:46:02.473Z,98792.60
2017-11-21T20:52:06.525Z,98794.24
2017-11-21T20:58:11.231Z,98797.52
2017-11-21T21:04:15.717Z,98808.97
2017-11-21T21:10:19.809Z,98804.98
2017-11-21T21:29:25.803Z,98801.38
2017-11-21T21:35:30.798Z,98798.70
2017-11-21T21:41:35.875Z,98804.37
2017-11-21T21:47:40.412Z,98808.09
2017-11-21T21:53:44.975Z,98808.91
2017-11-21T21:59:48.570Z,98811.50
2017-11-21T22:05:55.731Z,98814.06
2017-11-21T22:12:01.142Z,98810.76
2017-11-21T22:18:06.219Z,98806.73
2017-11-21T22:37:11.098Z,98807.14
2017-11-21T22:43:16.504Z,98818.37
2017-11-21T22:49:21.568Z,98826.16
2017-11-21T22:55:26.235Z,98818.77
2017-11-21T23:01:34.332Z,98824.72
2017-11-21T23:07:40.746Z,98813.61
2017-11-21T23:26:44.486Z,98804.59
2017-11-21T23:32:48.332Z,98809.23
2017-11-21T23:38:54.229Z,98805.95
2017-11-21T23:45:00.761Z,98799.39
2017-11-21T23:51:07.147Z,98794.00
2017-11-21T23:57:12.092Z,98806.36
